createdAt,value
2023-03-06T00:02:14.098Z,61.35
2023-03-06T00:05:36.242Z,65.75
2023-03-06T00:08:58.310Z,72.63
2023-03-06T00:12:20.266Z,61.95
2023-03-06T00:15:42.780Z,66.93
2023-03-06T00:19:04.786Z,79.75
2023-03-06T00:22:26.882Z,67.85
2023-03-06T00:25:48.887Z,65.82
2023-03-06T00:29:11.083Z,66.40
2023-03-06T00:32:33.155Z,71.82
2023-03-06T00:35:56.936Z,70.63
2023-03-06T00:39:19.040Z,71.97
2023-03-06T00:42:41.536Z,78.63
2023-03-06T00:46:04.161Z,80.05
2023-03-06T00:49:26.160Z,61.80
2023-03-06T00:52:48.158Z,72.35
2023-03-06T00:56:10.479Z,72.60
2023-03-06T00:59:32.527Z,70.97
2023-03-06T01:02:54.512Z,68.07
2023-03-06T01:06:17.599Z,75.47
2023-03-06T01:09:39.634Z,76.40
2023-03-06T01:13:01.589Z,75.32
2023-03-06T01:16:24.009Z,75.30
2023-03-06T01:19:46.063Z,74.25
2023-03-06T01:23:08.997Z,79.95
2023-03-06T01:26:31.692Z,84.07
2023-03-06T01:29:53.665Z,92.78
2023-03-06T01:33:15.769Z,90.47
2023-03-06T01:36:37.872Z,85.65
2023-03-06T01:40:00.414Z,77.15
2023-03-06T01:43:27.786Z,76.80
2023-03-06T01:46:49.803Z,82.20
2023-03-06T01:50:12.813Z,84.88
2023-03-06T01:53:34.871Z,85.78
2023-03-06T01:57:05.688Z,91.88
2023-03-06T02:00:29.628Z,87.10
2023-03-06T02:03:51.892Z,84.90
2023-03-06T02:07:15.777Z,84.43
2023-03-06T02:10:37.974Z,83.18
2023-03-06T02:14:00.100Z,78.93
2023-03-06T02:17:23.474Z,81.03
2023-03-06T02:20:54.076Z,90.05
2023-03-06T02:24:42.168Z,84.80
2023-03-06T02:28:06.551Z,85.28
2023-03-06T02:31:32.094Z,84.20
2023-03-06T02:34:56.535Z,78.53
2023-03-06T02:38:21.932Z,83.45
2023-03-06T02:41:43.986Z,78.65
2023-03-06T02:45:09.920Z,87.72
2023-03-06T02:48:31.893Z,78.90
2023-03-06T02:51:53.848Z,73.07
2023-03-06T02:55:15.865Z,67.00
2023-03-06T02:58:38.123Z,73.43
2023-03-06T03:02:00.156Z,73.35
2023-03-06T03:05:22.996Z,70.43
2023-03-06T03:08:52.277Z,72.07
2023-03-06T03:12:14.792Z,77.40
2023-03-06T03:15:36.854Z,75.30
2023-03-06T03:18:58.844Z,78.13
2023-03-06T03:22:22.176Z,76.97
2023-03-06T03:25:45.322Z,79.72
2023-03-06T03:29:09.795Z,79.55
2023-03-06T03:32:31.967Z,76.88
2023-03-06T03:36:01.843Z,78.75
2023-03-06T03:39:24.163Z,75.32
2023-03-06T03:42:46.311Z,74.07
2023-03-06T03:46:08.858Z,71.78
2023-03-06T03:49:31.826Z,71.38
2023-03-06T03:52:54.997Z,77.40
2023-03-06T03:56:17.133Z,72.47
2023-03-06T03:59:47.832Z,70.47
2023-03-06T04:03:17.196Z,81.13
2023-03-06T04:06:40.995Z,68.93
2023-03-06T04:10:03.159Z,65.50
2023-03-06T04:13:26.070Z,63.55
2023-03-06T04:16:48.667Z,70.97
2023-03-06T04:20:11.362Z,67.15
2023-03-06T04:23:33.648Z,70.20
2023-03-06T04:26:55.723Z,71.80
2023-03-06T04:30:18.730Z,66.00
2023-03-06T04:33:41.122Z,71.03
2023-03-06T04:37:05.023Z,66.68
2023-03-06T04:40:29.556Z,73.70
2023-03-06T04:43:52.321Z,72.78
2023-03-06T04:47:14.390Z,71.00
2023-03-06T04:50:38.016Z,74.72
2023-03-06T04:53:59.964Z,65.65
2023-03-06T04:57:22.371Z,67.78
2023-03-06T05:00:44.483Z,76.75
2023-03-06T05:04:06.556Z,66.35
2023-03-06T05:07:28.572Z,75.10
2023-03-06T05:10:56.631Z,70.82
2023-03-06T05:14:18.738Z,67.57
2023-03-06T05:17:41.184Z,67.28
2023-03-06T05:21:04.841Z,71.68
2023-03-06T05:24:27.199Z,70.13
2023-03-06T05:27:49.379Z,86.07
2023-03-06T05:31:12.134Z,83.53
2023-03-06T05:34:35.595Z,75.13
2023-03-06T05:37:57.921Z,85.05
2023-03-06T05:41:19.993Z,89.63
2023-03-06T05:44:41.959Z,85.68
2023-03-06T05:48:04.456Z,95.50
2023-03-06T05:51:26.795Z,93.10
2023-03-06T05:54:53.783Z,91.22
2023-03-06T05:58:16.586Z,95.60
2023-03-06T06:01:38.692Z,105.30
2023-03-06T06:05:02.713Z,93.35
2023-03-06T06:08:26.210Z,104.30
2023-03-06T06:11:58.790Z,96.10
2023-03-06T06:15:20.808Z,97.82
2023-03-06T06:18:43.563Z,89.05
2023-03-06T06:22:05.609Z,103.93
2023-03-06T06:25:27.628Z,105.28
2023-03-06T06:28:49.653Z,105.63
2023-03-06T06:32:11.754Z,105.65
2023-03-06T06:35:37.278Z,106.28
2023-03-06T06:38:59.641Z,101.75
2023-03-06T06:42:31.499Z,95.63
2023-03-06T06:46:19.556Z,101.40
2023-03-06T06:49:41.359Z,107.63
2023-03-06T06:53:03.442Z,101.18
2023-03-06T06:56:25.976Z,111.07
2023-03-06T06:59:48.001Z,101.75
2023-03-06T07:03:13.064Z,104.90
2023-03-06T07:06:35.006Z,102.05
2023-03-06T07:09:57.133Z,97.22
2023-03-06T07:13:19.160Z,100.60
2023-03-06T07:16:41.303Z,93.32
2023-03-06T07:20:04.509Z,95.90
2023-03-06T07:23:27.305Z,104.95
2023-03-06T07:26:49.279Z,96.28
2023-03-06T07:30:13.539Z,91.97
2023-03-06T07:33:35.850Z,98.70
2023-03-06T07:36:57.794Z,88.70
2023-03-06T07:40:20.884Z,87.07
2023-03-06T07:43:44.268Z,91.10
2023-03-06T07:47:07.415Z,89.55
2023-03-06T07:50:29.508Z,89.85
2023-03-06T07:53:51.623Z,98.93
2023-03-06T07:57:13.771Z,97.95
2023-03-06T08:00:35.783Z,92.63
2023-03-06T08:03:57.867Z,97.43
2023-03-06T08:07:20.483Z,91.10
2023-03-06T08:10:48.054Z,93.95
2023-03-06T08:14:09.972Z,93.20
2023-03-06T08:17:31.961Z,95.10
2023-03-06T08:21:09.012Z,94.43
2023-03-06T08:24:31.077Z,87.47
2023-03-06T08:27:53.058Z,96.15
2023-03-06T08:31:36.998Z,90.68
2023-03-06T08:34:58.959Z,90.15
2023-03-06T08:38:21.004Z,93.20
2023-03-06T08:41:43.336Z,84.20
2023-03-06T08:45:06.633Z,86.00
2023-03-06T08:48:28.785Z,79.25
2023-03-06T08:51:50.735Z,80.82
2023-03-06T08:55:14.986Z,92.82
2023-03-06T08:58:37.173Z,87.43
2023-03-06T09:01:59.238Z,88.93
2023-03-06T09:05:21.332Z,83.95
2023-03-06T09:08:44.593Z,88.97
2023-03-06T09:12:06.953Z,85.47
2023-03-06T09:15:29.118Z,89.10
2023-03-06T09:18:53.132Z,80.95
2023-03-06T09:22:15.227Z,80.85
2023-03-06T09:25:37.257Z,97.47
2023-03-06T09:28:59.205Z,93.35
2023-03-06T09:32:22.586Z,85.05
2023-03-06T09:35:52.977Z,83.55
2023-03-06T09:39:14.972Z,86.30
2023-03-06T09:42:37.138Z,78.82
2023-03-06T09:45:59.731Z,87.78
2023-03-06T09:49:58.596Z,87.28
2023-03-06T09:53:47.238Z,77.20
2023-03-06T09:57:23.050Z,77.68
2023-03-06T10:01:17.215Z,75.35
2023-03-06T10:04:43.973Z,71.57
2023-03-06T10:08:18.451Z,64.10
2023-03-06T10:11:54.282Z,64.50
2023-03-06T10:15:34.678Z,72.10
2023-03-06T10:19:02.293Z,67.18
2023-03-06T10:22:52.604Z,66.10
2023-03-06T10:26:32.620Z,68.82
2023-03-06T10:30:22.521Z,62.63
2023-03-06T10:34:21.967Z,67.72
2023-03-06T10:37:43.922Z,58.47
2023-03-06T10:41:11.880Z,65.10
2023-03-06T10:44:33.821Z,67.63
2023-03-06T10:48:12.017Z,64.88
2023-03-06T10:51:36.687Z,61.00
2023-03-06T10:55:23.212Z,63.05
2023-03-06T10:58:45.188Z,52.47
2023-03-06T11:02:42.234Z,64.60
2023-03-06T11:06:09.510Z,57.58
2023-03-06T11:09:33.656Z,49.30
2023-03-06T11:13:07.660Z,49.22
2023-03-06T11:16:30.714Z,52.10
2023-03-06T11:20:49.907Z,53.72
2023-03-06T11:24:19.780Z,50.30
2023-03-06T11:27:45.520Z,55.38
2023-03-06T11:31:10.880Z,50.00
2023-03-06T11:34:54.921Z,50.15
2023-03-06T11:38:40.383Z,45.03
2023-03-06T11:42:11.996Z,52.13
2023-03-06T11:45:45.273Z,46.25
2023-03-06T11:49:29.100Z,46.58
2023-03-06T11:53:26.484Z,48.10
2023-03-06T11:57:02.364Z,52.85
2023-03-06T12:00:50.290Z,47.70
2023-03-06T12:04:24.282Z,41.75
2023-03-06T12:08:01.584Z,43.88
2023-03-06T12:11:32.803Z,52.33
2023-03-06T12:14:58.354Z,42.92
2023-03-06T12:18:35.457Z,45.35
2023-03-06T12:22:09.299Z,40.42
2023-03-06T12:25:39.759Z,47.10
2023-03-06T12:29:12.334Z,47.00
2023-03-06T12:32:55.040Z,41.95
2023-03-06T12:36:50.955Z,44.30
2023-03-06T12:40:28.201Z,37.10
2023-03-06T12:44:15.195Z,39.38
2023-03-06T12:47:43.447Z,38.40
2023-03-06T12:51:07.515Z,37.65
2023-03-06T12:54:31.416Z,32.80
2023-03-06T12:57:54.018Z,39.85
2023-03-06T13:01:55.195Z,36.50
2023-03-06T13:06:05.365Z,37.53
2023-03-06T13:09:30.439Z,36.85
2023-03-06T13:13:33.678Z,35.03
2023-03-06T13:17:15.631Z,39.83
2023-03-06T13:20:45.076Z,38.88
2023-03-06T13:24:17.864Z,35.87
2023-03-06T13:27:54.735Z,38.00
2023-03-06T13:31:33.692Z,36.13
2023-03-06T13:34:55.975Z,34.70
2023-03-06T13:38:31.484Z,35.25
2023-03-06T13:41:58.906Z,33.95
2023-03-06T13:45:50.616Z,36.70
2023-03-06T13:49:24.191Z,29.95
2023-03-06T13:53:08.105Z,39.85
2023-03-06T13:56:55.924Z,38.92
2023-03-06T14:00:51.674Z,33.72
2023-03-06T14:04:32.842Z,40.85
2023-03-06T14:08:10.960Z,37.97
2023-03-06T14:11:35.278Z,37.63
2023-03-06T14:15:01.941Z,35.10
2023-03-06T14:18:38.699Z,36.03
2023-03-06T14:22:04.200Z,34.75
2023-03-06T14:25:31.703Z,37.25
2023-03-06T14:29:01.123Z,35.55
2023-03-06T14:32:23.476Z,41.40
2023-03-06T14:35:52.256Z,36.10
2023-03-06T14:39:34.674Z,39.05
2023-03-06T14:43:17.741Z,34.65
2023-03-06T14:46:39.930Z,36.33
2023-03-06T14:50:32.607Z,37.58
2023-03-06T14:54:00.699Z,38.67
2023-03-06T14:57:23.779Z,39.63
2023-03-06T15:00:50.037Z,36.15
2023-03-06T15:04:19.593Z,27.65
2023-03-06T15:07:42.908Z,32.00
2023-03-06T15:11:06.963Z,28.10
2023-03-06T15:14:47.837Z,31.00
2023-03-06T15:18:55.438Z,31.13
2023-03-06T15:22:31.116Z,24.35
2023-03-06T15:25:59.944Z,25.27
2023-03-06T15:29:23.865Z,26.55
2023-03-06T15:32:45.854Z,26.23
2023-03-06T15:36:20.587Z,25.45
2023-03-06T15:39:43.318Z,25.77
2023-03-06T15:43:10.879Z,24.05
2023-03-06T15:46:33.292Z,25.75
2023-03-06T15:49:55.520Z,25.63
2023-03-06T15:53:17.529Z,24.85
2023-03-06T15:56:41.802Z,25.88
2023-03-06T16:00:04.970Z,24.00
2023-03-06T16:03:34.020Z,26.38
2023-03-06T16:06:59.672Z,25.85
2023-03-06T16:10:27.586Z,21.33
2023-03-06T16:13:49.811Z,26.98
2023-03-06T16:17:12.325Z,24.98
2023-03-06T16:20:34.384Z,29.40
2023-03-06T16:23:56.333Z,25.10
2023-03-06T16:27:19.851Z,28.42
2023-03-06T16:30:44.005Z,29.08
2023-03-06T16:34:05.987Z,24.02
2023-03-06T16:37:27.960Z,29.35
2023-03-06T16:40:49.948Z,31.67
2023-03-06T16:44:12.600Z,24.17
2023-03-06T16:47:34.779Z,29.55
2023-03-06T16:50:56.764Z,28.40
2023-03-06T16:54:19.419Z,36.63
2023-03-06T16:57:41.463Z,34.08
2023-03-06T17:01:04.084Z,27.60
2023-03-06T17:04:26.131Z,29.90
2023-03-06T17:07:50.296Z,35.08
2023-03-06T17:11:12.976Z,30.88
2023-03-06T17:14:35.031Z,32.88
2023-03-06T17:17:57.890Z,32.22
2023-03-06T17:21:19.961Z,28.02
2023-03-06T17:24:42.488Z,36.13
2023-03-06T17:28:04.518Z,29.42
2023-03-06T17:31:27.725Z,32.60
2023-03-06T17:34:49.753Z,29.70
2023-03-06T17:38:11.712Z,27.48
2023-03-06T17:41:34.330Z,37.72
2023-03-06T17:44:57.400Z,30.25
2023-03-06T17:48:19.336Z,32.22
2023-03-06T17:51:41.334Z,28.77
2023-03-06T17:55:03.735Z,33.75
2023-03-06T17:58:26.661Z,38.35
2023-03-06T18:01:48.847Z,34.78
2023-03-06T18:05:12.207Z,38.15
2023-03-06T18:08:35.221Z,35.40
2023-03-06T18:11:57.270Z,38.58
2023-03-06T18:15:19.822Z,38.97
2023-03-06T18:18:42.692Z,37.00
2023-03-06T18:22:05.496Z,38.10
2023-03-06T18:25:30.857Z,37.55
2023-03-06T18:28:56.825Z,47.58
2023-03-06T18:32:19.480Z,41.22
2023-03-06T18:35:44.291Z,44.35
2023-03-06T18:39:09.055Z,39.58
2023-03-06T18:42:31.721Z,39.53
2023-03-06T18:45:58.184Z,42.78
2023-03-06T18:49:23.839Z,41.42
2023-03-06T18:52:46.366Z,47.13
2023-03-06T18:56:11.139Z,59.55
2023-03-06T18:59:33.677Z,56.47
2023-03-06T19:02:56.341Z,47.15
2023-03-06T19:06:19.126Z,43.88
2023-03-06T19:09:42.768Z,57.80
2023-03-06T19:13:05.709Z,53.28
2023-03-06T19:16:29.859Z,45.13
2023-03-06T19:19:52.454Z,49.65
2023-03-06T19:23:15.690Z,43.10
2023-03-06T19:26:38.433Z,47.08
2023-03-06T19:30:01.307Z,48.55
2023-03-06T19:33:24.292Z,45.55
2023-03-06T19:36:46.696Z,65.68
2023-03-06T19:40:09.804Z,47.58
2023-03-06T19:43:31.845Z,50.58
2023-03-06T19:46:53.757Z,47.50
2023-03-06T19:50:16.120Z,45.17
2023-03-06T19:53:41.347Z,51.78
2023-03-06T19:57:03.974Z,41.40
2023-03-06T20:00:26.942Z,48.97
2023-03-06T20:03:50.696Z,36.80
2023-03-06T20:07:13.220Z,46.35
2023-03-06T20:10:37.208Z,48.67
2023-03-06T20:14:01.619Z,42.33
2023-03-06T20:17:23.591Z,40.95
2023-03-06T20:20:45.932Z,42.92
2023-03-06T20:24:09.953Z,48.50
2023-03-06T20:27:32.061Z,44.10
2023-03-06T20:30:54.111Z,48.92
2023-03-06T20:34:16.186Z,51.00
2023-03-06T20:37:38.393Z,61.95
2023-03-06T20:41:00.558Z,49.28
2023-03-06T20:44:23.219Z,48.60
2023-03-06T20:47:47.200Z,41.47
2023-03-06T20:51:19.963Z,46.45
2023-03-06T20:54:42.733Z,40.97
2023-03-06T20:58:05.785Z,45.50
2023-03-06T21:01:30.231Z,57.42
2023-03-06T21:04:53.215Z,50.15
2023-03-06T21:08:16.510Z,46.95
2023-03-06T21:11:38.481Z,52.25
2023-03-06T21:15:00.460Z,46.85
2023-03-06T21:18:22.489Z,55.40
2023-03-06T21:21:44.442Z,52.88
2023-03-06T21:25:06.543Z,50.25
2023-03-06T21:28:29.375Z,44.22
2023-03-06T21:31:51.386Z,48.00
2023-03-06T21:35:14.045Z,52.33
2023-03-06T21:38:36.547Z,48.25
2023-03-06T21:41:58.517Z,51.42
2023-03-06T21:45:20.470Z,56.63
2023-03-06T21:48:42.447Z,59.97
2023-03-06T21:52:04.626Z,59.33
2023-03-06T21:55:26.686Z,60.70
2023-03-06T21:58:48.901Z,57.45
2023-03-06T22:02:11.475Z,61.53
2023-03-06T22:05:33.542Z,62.83
2023-03-06T22:08:57.046Z,63.83
2023-03-06T22:12:19.014Z,63.38
2023-03-06T22:15:48.837Z,70.38
2023-03-06T22:19:10.874Z,66.75
2023-03-06T22:22:32.933Z,64.40
2023-03-06T22:25:54.939Z,61.80
2023-03-06T22:29:16.911Z,61.50
2023-03-06T22:32:38.895Z,57.50
2023-03-06T22:36:07.606Z,71.68
2023-03-06T22:39:29.553Z,75.13
2023-03-06T22:42:51.644Z,76.35
2023-03-06T22:46:16.281Z,74.70
2023-03-06T22:49:38.468Z,62.10
2023-03-06T22:53:00.450Z,63.65
2023-03-06T22:56:22.978Z,73.90
2023-03-06T22:59:45.056Z,70.28
2023-03-06T23:03:07.000Z,74.57
2023-03-06T23:06:31.739Z,72.45
2023-03-06T23:09:53.868Z,58.92
2023-03-06T23:17:14.969Z,71.90
2023-03-06T23:24:36.818Z,63.67
2023-03-06T23:27:58.787Z,59.65
2023-03-06T23:31:24.166Z,66.63
2023-03-06T23:34:48.602Z,62.67
2023-03-06T23:38:11.064Z,65.10
2023-03-06T23:41:33.332Z,67.80
2023-03-06T23:44:55.420Z,60.20
2023-03-06T23:48:17.835Z,63.15
2023-03-06T23:51:39.832Z,75.72
2023-03-06T23:55:01.875Z,70.03
2023-03-06T23:58:23.811Z,65.88
